Time,TemperatureF,DewpointF,PressureIn,WindDirection,WindDirectionDegrees,WindSpeedMPH,WindSpeedGustMPH,Humidity,HourlyPrecipIn,Conditions,Clouds,dailyrainin,SoftwareType,DateUTC
2013-01-17 00:00:00,57.8,56.7,29.99,South,189,1.0,2.0,96,0.00,,---,0.00,VWS V14.00,2013-01-17 05:00:00,
2013-01-17 00:01:00,57.8,56.7,29.99,South,189,2.0,2.0,96,0.00,,---,0.00,VWS V14.00,2013-01-17 05:01:00,
2013-01-17 00:06:00,57.8,56.7,29.99,South,189,1.0,2.0,96,0.00,,---,0.00,VWS V14.00,2013-01-17 05:06:00,
2013-01-17 00:11:00,57.6,56.5,29.99,South,189,1.0,2.0,96,0.00,,---,0.00,VWS V14.00,2013-01-17 05:11:00,
2013-01-17 00:16:00,57.3,56.2,29.99,South,189,0.0,2.0,96,0.00,,---,0.00,VWS V14.00,2013-01-17 05:16:00,
2013-01-17 00:21:00,56.9,55.5,29.99,South,189,0.0,2.0,95,0.00,,---,0.00,VWS V14.00,2013-01-17 05:21:00,
2013-01-17 00:26:00,56.6,55.5,29.99,South,189,0.0,2.0,96,0.00,,---,0.00,VWS V14.00,2013-01-17 05:26:00,
2013-01-17 00:31:00,56.1,54.7,29.99,South,189,1.0,3.0,95,0.00,,---,0.00,VWS V14.00,2013-01-17 05:31:00,
2013-01-17 00:36:00,55.9,54.8,29.98,South,172,3.0,4.0,96,0.00,,---,0.00,VWS V14.00,2013-01-17 05:36:00,
2013-01-17 00:41:00,56.2,55.4,29.98,South,173,4.0,5.0,97,0.00,,---,0.00,VWS V14.00,2013-01-17 05:41:00,
2013-01-17 00:46:00,56.5,55.7,29.98,South,190,3.0,5.0,97,0.00,,---,0.00,VWS V14.00,2013-01-17 05:46:00,
2013-01-17 00:51:00,57.1,56.3,29.98,South,191,3.0,5.0,97,0.00,,---,0.00,VWS V14.00,2013-01-17 05:51:00,
2013-01-17 00:56:00,57.6,56.8,29.98,SSW,192,2.0,5.0,97,0.00,,---,0.00,VWS V14.00,2013-01-17 05:56:00,
2013-01-17 01:01:00,58.0,57.2,29.98,SSW,192,2.0,3.0,97,0.00,,---,0.00,VWS V14.00,2013-01-17 06:01:00,
2013-01-17 01:06:00,58.3,57.5,29.98,SSW,202,2.0,4.0,97,0.00,,---,0.00,VWS V14.00,2013-01-17 06:06:00,
2013-01-17 01:11:00,58.4,57.6,29.98,SSW,202,1.0,4.0,97,0.00,,---,0.00,VWS V14.00,2013-01-17 06:11:00,
2013-01-17 01:16:00,58.6,57.8,29.98,SSW,202,1.0,4.0,97,0.00,,---,0.00,VWS V14.00,2013-01-17 06:16:00,
2013-01-17 01:21:00,58.8,58.0,29.98,SSW,205,0.0,4.0,97,0.00,,---,0.00,VWS V14.00,2013-01-17 06:21:00,
2013-01-17 01:26:00,58.9,58.0,29.98,SSW,206,2.0,4.0,97,0.00,,---,0.00,VWS V14.00,2013-01-17 06:26:00,
2013-01-17 01:31:00,59.0,58.2,29.98,SSW,208,3.0,3.0,97,0.00,,---,0.00,VWS V14.00,2013-01-17 06:31:00,
2013-01-17 01:36:00,59.2,58.3,29.99,WSW,239,3.0,3.0,97,0.00,,---,0.00,VWS V14.00,2013-01-17 06:36:00,
2013-01-17 01:41:00,59.4,58.5,29.99,WSW,251,3.0,4.0,97,0.00,,---,0.00,VWS V14.00,2013-01-17 06:41:00,
2013-01-17 01:46:00,59.3,58.5,29.99,West,260,2.0,4.0,97,0.00,,---,0.00,VWS V14.00,2013-01-17 06:46:00,
2013-01-17 01:51:00,59.2,58.3,29.99,West,266,3.0,4.0,97,0.00,,---,0.00,VWS V14.00,2013-01-17 06:51:00,
2013-01-17 01:56:00,58.9,58.0,29.99,West,265,2.0,4.0,97,0.00,,---,0.00,VWS V14.00,2013-01-17 06:56:00,
2013-01-17 02:01:00,58.5,57.7,29.99,West,265,1.0,2.0,97,0.00,,---,0.00,VWS V14.00,2013-01-17 07:01:00,
2013-01-17 02:06:00,58.2,57.1,29.99,West,265,1.0,2.0,96,0.00,,---,0.00,VWS V14.00,2013-01-17 07:06:00,
2013-01-17 02:11:00,58.0,57.2,29.99,West,265,2.0,2.0,97,0.00,,---,0.00,VWS V14.00,2013-01-17 07:11:00,
2013-01-17 02:16:00,57.5,56.4,29.99,West,265,1.0,2.0,96,0.00,,---,0.00,VWS V14.00,2013-01-17 07:16:00,
2013-01-17 02:21:00,57.3,56.5,29.98,WSW,246,1.0,2.0,97,0.00,,---,0.00,VWS V14.00,2013-01-17 07:21:00,
2013-01-17 02:26:00,57.3,56.5,29.98,WSW,246,1.0,2.0,97,0.00,,---,0.00,VWS V14.00,2013-01-17 07:26:00,
2013-01-17 02:31:00,57.5,56.7,29.98,WSW,245,0.0,2.0,97,0.00,,---,0.00,VWS V14.00,2013-01-17 07:31:00,
2013-01-17 02:36:00,57.6,56.8,29.98,WSW,245,0.0,2.0,97,0.00,,---,0.00,VWS V14.00,2013-01-17 07:36:00,
2013-01-17 02:41:00,57.6,56.8,29.98,WSW,245,0.0,2.0,97,0.00,,---,0.00,VWS V14.00,2013-01-17 07:41:00,
2013-01-17 02:46:00,57.8,57.0,29.98,WSW,245,0.0,2.0,97,0.00,,---,0.00,VWS V14.00,2013-01-17 07:46:00,
2013-01-17 02:51:00,58.0,57.2,29.98,WSW,246,0.0,2.0,97,0.00,,---,0.00,VWS V14.00,2013-01-17 07:51:00,
2013-01-17 02:56:00,57.8,57.0,29.98,WSW,245,1.0,2.0,97,0.00,,---,0.00,VWS V14.00,2013-01-17 07:56:00,
2013-01-17 03:01:00,58.0,57.2,29.98,WSW,245,0.0,1.0,97,0.00,,---,0.00,VWS V14.00,2013-01-17 08:01:00,
2013-01-17 03:06:00,58.1,57.3,29.97,WSW,245,0.0,1.0,97,0.00,,---,0.01,VWS V14.00,2013-01-17 08:06:00,
2013-01-17 03:11:00,57.9,57.1,29.97,WSW,246,0.0,1.0,97,0.00,,---,0.01,VWS V14.00,2013-01-17 08:11:00,
2013-01-17 03:16:00,58.0,57.2,29.97,WSW,246,0.0,1.0,97,0.00,,---,0.01,VWS V14.00,2013-01-17 08:16:00,
2013-01-17 03:21:00,58.2,57.4,29.97,WSW,246,0.0,1.0,97,0.00,,---,0.01,VWS V14.00,2013-01-17 08:21:00,
2013-01-17 03:26:00,58.2,57.4,29.97,WSW,245,0.0,1.0,97,0.00,,---,0.01,VWS V14.00,2013-01-17 08:26:00,
2013-01-17 03:31:00,58.1,57.3,29.97,WSW,245,1.0,1.0,97,0.00,,---,0.01,VWS V14.00,2013-01-17 08:31:00,
2013-01-17 03:36:00,58.3,57.5,29.97,WSW,245,1.0,3.0,97,0.00,,---,0.01,VWS V14.00,2013-01-17 08:36:00,
2013-01-17 03:41:00,58.4,57.6,29.97,SSW,195,3.0,4.0,97,0.00,,---,0.01,VWS V14.00,2013-01-17 08:41:00,
2013-01-17 03:46:00,58.6,57.8,29.97,SSW,196,2.0,4.0,97,0.00,,---,0.01,VWS V14.00,2013-01-17 08:46:00,
2013-01-17 03:51:00,58.8,58.0,29.97,SSW,196,2.0,4.0,97,0.00,,---,0.01,VWS V14.00,2013-01-17 08:51:00,
2013-01-17 03:56:00,59.1,58.5,29.97,SSW,196,3.0,4.0,98,0.00,,---,0.01,VWS V14.00,2013-01-17 08:56:00,
2013-01-17 04:01:00,59.2,58.3,29.97,SSW,193,3.0,4.0,97,0.00,,---,0.01,VWS V14.00,2013-01-17 09:01:00,
2013-01-17 04:06:00,59.5,58.7,29.96,SSW,195,4.0,4.0,97,0.00,,---,0.01,VWS V14.00,2013-01-17 09:06:00,
2013-01-17 04:11:00,59.6,59.0,29.96,SSW,194,3.0,6.0,98,0.00,,---,0.01,VWS V14.00,2013-01-17 09:11:00,
2013-01-17 04:17:00,59.8,59.2,29.96,SSW,194,4.0,6.0,98,0.00,,---,0.01,VWS V14.00,2013-01-17 09:17:00,
2013-01-17 04:22:00,59.9,59.0,29.96,SSW,195,4.0,6.0,97,0.00,,---,0.01,VWS V14.00,2013-01-17 09:22:00,
2013-01-17 04:27:00,60.2,59.6,29.96,South,180,5.0,9.0,98,0.00,,---,0.01,VWS V14.00,2013-01-17 09:27:00,
2013-01-17 04:32:00,60.4,59.8,29.96,South,189,3.0,6.0,98,0.00,,---,0.01,VWS V14.00,2013-01-17 09:32:00,
2013-01-17 04:37:00,60.4,59.8,29.96,South,189,3.0,6.0,98,0.00,,---,0.01,VWS V14.00,2013-01-17 09:37:00,
2013-01-17 04:42:00,60.3,59.5,29.96,South,180,6.0,6.0,97,0.00,,---,0.01,VWS V14.00,2013-01-17 09:42:00,
2013-01-17 04:47:00,60.3,59.5,29.95,SSW,207,4.0,6.0,97,0.00,,---,0.01,VWS V14.00,2013-01-17 09:47:00,
2013-01-17 04:52:00,60.4,59.5,29.95,SSW,192,6.0,6.0,97,0.00,,---,0.01,VWS V14.00,2013-01-17 09:52:00,
2013-01-17 04:57:00,60.5,59.7,29.95,SSW,206,3.0,6.0,97,0.00,,---,0.01,VWS V14.00,2013-01-17 09:57:00,
2013-01-17 05:02:00,60.9,60.3,29.95,SSW,202,6.0,9.0,98,0.00,,---,0.01,VWS V14.00,2013-01-17 10:02:00,
2013-01-17 05:07:00,60.9,60.3,29.95,SSW,200,5.0,9.0,98,0.00,,---,0.01,VWS V14.00,2013-01-17 10:07:00,
2013-01-17 05:12:00,61.0,60.4,29.95,SSW,202,6.0,9.0,98,0.00,,---,0.01,VWS V14.00,2013-01-17 10:12:00,
2013-01-17 05:17:00,61.1,60.2,29.95,SSW,208,6.0,9.0,97,0.00,,---,0.01,VWS V14.00,2013-01-17 10:17:00,
2013-01-17 05:22:00,61.2,60.3,29.95,SSW,208,9.0,10.0,97,0.00,,---,0.01,VWS V14.00,2013-01-17 10:22:00,
2013-01-17 05:27:00,61.4,60.5,29.95,SSW,195,5.0,10.0,97,0.00,,---,0.01,VWS V14.00,2013-01-17 10:27:00,
2013-01-17 05:32:00,61.5,60.6,29.95,South,178,9.0,11.0,97,0.00,,---,0.01,VWS V14.00,2013-01-17 10:32:00,
2013-01-17 05:37:00,61.7,60.8,29.95,SSW,199,8.0,11.0,97,0.00,,---,0.01,VWS V14.00,2013-01-17 10:37:00,
2013-01-17 05:42:00,61.9,61.0,29.95,SW,217,7.0,11.0,97,0.00,,---,0.01,VWS V14.00,2013-01-17 10:42:00,
2013-01-17 05:47:00,61.9,61.0,29.95,SSW,210,5.0,11.0,97,0.00,,---,0.01,VWS V14.00,2013-01-17 10:47:00,
2013-01-17 05:52:00,62.1,61.2,29.95,SSW,200,6.0,11.0,97,0.00,,---,0.01,VWS V14.00,2013-01-17 10:52:00,
2013-01-17 05:57:00,61.9,60.8,29.95,SW,214,5.0,11.0,96,0.00,,---,0.01,VWS V14.00,2013-01-17 10:57:00,
2013-01-17 06:02:00,61.8,60.7,29.95,SSW,210,8.0,9.0,96,0.00,,---,0.01,VWS V14.00,2013-01-17 11:02:00,
2013-01-17 06:07:00,61.9,60.8,29.96,SW,224,4.0,9.0,96,0.00,,---,0.01,VWS V14.00,2013-01-17 11:07:00,
2013-01-17 06:12:00,61.7,60.5,29.96,SSW,206,5.0,9.0,96,0.00,,---,0.01,VWS V14.00,2013-01-17 11:12:00,
2013-01-17 06:17:00,61.7,60.5,29.96,South,191,4.0,9.0,96,0.00,,---,0.01,VWS V14.00,2013-01-17 11:17:00,
2013-01-17 06:22:00,61.6,60.5,29.96,SW,216,5.0,9.0,96,0.00,,---,0.01,VWS V14.00,2013-01-17 11:22:00,
2013-01-17 06:27:00,61.5,60.3,29.96,SW,214,5.0,9.0,96,0.00,,---,0.01,VWS V14.00,2013-01-17 11:27:00,
2013-01-17 06:32:00,61.4,60.2,29.96,SSW,195,3.0,6.0,96,0.00,,---,0.01,VWS V14.00,2013-01-17 11:32:00,
2013-01-17 06:37:00,61.4,60.2,29.96,SW,214,5.0,7.0,96,0.00,,---,0.01,VWS V14.00,2013-01-17 11:37:00,
2013-01-17 06:42:00,61.3,60.2,29.96,SW,224,4.0,7.0,96,0.00,,---,0.01,VWS V14.00,2013-01-17 11:42:00,
2013-01-17 06:47:00,61.3,60.2,29.96,SW,229,3.0,7.0,96,0.00,,---,0.01,VWS V14.00,2013-01-17 11:47:00,
2013-01-17 06:52:00,61.3,60.2,29.96,SSW,211,3.0,7.0,96,0.00,,---,0.01,VWS V14.00,2013-01-17 11:52:00,
2013-01-17 06:57:00,61.1,60.0,29.96,SSW,212,3.0,7.0,96,0.00,,---,0.01,VWS V14.00,2013-01-17 11:57:00,
2013-01-17 07:02:00,61.0,59.9,29.97,SSW,211,3.0,4.0,96,0.00,,---,0.01,VWS V14.00,2013-01-17 12:02:00,
2013-01-17 07:07:00,60.9,59.8,29.97,SSW,204,4.0,5.0,96,0.00,,---,0.01,VWS V14.00,2013-01-17 12:07:00,
2013-01-17 07:12:00,60.6,59.5,29.97,South,191,3.0,5.0,96,0.00,,---,0.01,VWS V14.00,2013-01-17 12:12:00,
2013-01-17 07:17:00,60.5,59.4,29.97,SSW,195,3.0,5.0,96,0.00,,---,0.01,VWS V14.00,2013-01-17 12:17:00,
2013-01-17 07:22:00,60.5,59.4,29.97,SSW,202,2.0,5.0,96,0.00,,---,0.01,VWS V14.00,2013-01-17 12:22:00,
2013-01-17 07:27:00,60.6,59.5,29.97,SSW,206,3.0,5.0,96,0.00,,---,0.01,VWS V14.00,2013-01-17 12:27:00,
2013-01-17 07:32:00,60.6,59.5,29.97,SW,226,3.0,6.0,96,0.00,,---,0.01,VWS V14.00,2013-01-17 12:32:00,
2013-01-17 07:37:00,60.6,59.5,29.97,SW,227,2.0,6.0,96,0.00,,---,0.01,VWS V14.00,2013-01-17 12:37:00,
2013-01-17 07:42:00,60.7,59.6,29.98,SW,227,2.0,6.0,96,0.00,,---,0.01,VWS V14.00,2013-01-17 12:42:00,
2013-01-17 07:47:00,60.5,59.4,29.98,SW,217,2.0,6.0,96,0.00,,---,0.01,VWS V14.00,2013-01-17 12:47:00,
2013-01-17 07:52:00,60.5,59.4,29.98,South,185,4.0,6.0,96,0.00,,---,0.01,VWS V14.00,2013-01-17 12:52:00,
2013-01-17 07:57:00,60.5,59.4,29.98,SSW,194,2.0,6.0,96,0.00,,---,0.01,VWS V14.00,2013-01-17 12:57:00,
2013-01-17 08:02:00,60.7,59.8,29.98,SW,233,3.0,3.0,97,0.00,,---,0.01,VWS V14.00,2013-01-17 13:02:00,
2013-01-17 08:07:00,61.0,59.9,29.98,SW,229,2.0,3.0,96,0.00,,---,0.01,VWS V14.00,2013-01-17 13:07:00,
2013-01-17 08:12:00,61.2,60.3,29.98,SW,229,3.0,3.0,97,0.00,,---,0.01,VWS V14.00,2013-01-17 13:12:00,
2013-01-17 08:17:00,61.5,60.6,29.99,SW,229,2.0,3.0,97,0.00,,---,0.01,VWS V14.00,2013-01-17 13:17:00,
2013-01-17 08:22:00,61.8,60.7,29.99,SW,229,2.0,3.0,96,0.00,,---,0.01,VWS V14.00,2013-01-17 13:22:00,
2013-01-17 08:27:00,62.0,61.1,29.99,SW,220,4.0,5.0,97,0.00,,---,0.01,VWS V14.00,2013-01-17 13:27:00,
2013-01-17 08:32:00,62.3,61.2,29.99,SW,223,4.0,5.0,96,0.00,,---,0.01,VWS V14.00,2013-01-17 13:32:00,
2013-01-17 08:37:00,62.6,61.5,29.99,SW,231,4.0,5.0,96,0.00,,---,0.01,VWS V14.00,2013-01-17 13:37:00,
2013-01-17 08:42:00,62.8,61.7,29.99,SW,216,5.0,6.0,96,0.00,,---,0.01,VWS V14.00,2013-01-17 13:42:00,
2013-01-17 08:47:00,63.2,62.0,29.99,SW,215,4.0,6.0,96,0.00,,---,0.01,VWS V14.00,2013-01-17 13:47:00,
2013-01-17 08:52:00,63.4,62.0,29.99,SW,224,5.0,8.0,95,0.00,,---,0.01,VWS V14.00,2013-01-17 13:52:00,
2013-01-17 08:57:00,63.8,62.3,29.99,WSW,242,4.0,9.0,95,0.00,,---,0.01,VWS V14.00,2013-01-17 13:57:00,
2013-01-17 09:02:00,64.3,62.5,29.99,SSW,213,6.0,9.0,94,0.00,,---,0.01,VWS V14.00,2013-01-17 14:02:00,
2013-01-17 09:07:00,64.6,62.5,29.99,SW,235,5.0,9.0,93,0.00,,---,0.01,VWS V14.00,2013-01-17 14:07:00,
2013-01-17 09:12:00,64.9,62.5,29.99,SW,216,7.0,11.0,92,0.00,,---,0.01,VWS V14.00,2013-01-17 14:12:00,
2013-01-17 09:17:00,65.3,62.6,29.99,SSW,208,9.0,11.0,91,0.00,,---,0.01,VWS V14.00,2013-01-17 14:17:00,
2013-01-17 09:22:00,65.6,62.6,29.99,SW,223,5.0,11.0,90,0.00,,---,0.01,VWS V14.00,2013-01-17 14:22:00,
2013-01-17 09:27:00,65.9,62.9,29.99,SW,233,9.0,11.0,90,0.00,,---,0.01,VWS V14.00,2013-01-17 14:27:00,
2013-01-17 09:32:00,66.3,63.0,29.99,SW,220,7.0,10.0,89,0.00,,---,0.01,VWS V14.00,2013-01-17 14:32:00,
2013-01-17 09:37:00,66.6,63.3,29.99,SW,215,6.0,10.0,89,0.00,,---,0.01,VWS V14.00,2013-01-17 14:37:00,
2013-01-17 09:42:00,67.1,63.4,29.99,SW,228,9.0,10.0,88,0.00,,---,0.01,VWS V14.00,2013-01-17 14:42:00,
2013-01-17 09:47:00,67.2,63.2,29.99,SSW,208,7.0,12.0,87,0.00,,---,0.01,VWS V14.00,2013-01-17 14:47:00,
2013-01-17 09:52:00,67.5,63.2,29.99,SW,230,7.0,12.0,86,0.00,,---,0.01,VWS V14.00,2013-01-17 14:52:00,
2013-01-17 09:57:00,67.9,63.6,29.99,SSW,206,6.0,12.0,86,0.00,,---,0.01,VWS V14.00,2013-01-17 14:57:00,
2013-01-17 10:02:00,68.3,63.6,29.99,SW,216,6.0,10.0,85,0.00,,---,0.01,VWS V14.00,2013-01-17 15:02:00,
2013-01-17 10:07:00,68.7,63.7,29.98,WSW,237,5.0,10.0,84,0.00,,---,0.01,VWS V14.00,2013-01-17 15:07:00,
2013-01-17 10:12:00,68.9,63.9,29.98,SW,220,8.0,10.0,84,0.00,,---,0.01,VWS V14.00,2013-01-17 15:12:00,
2013-01-17 10:17:00,69.2,63.5,29.98,WSW,237,10.0,13.0,82,0.00,,---,0.01,VWS V14.00,2013-01-17 15:17:00,
2013-01-17 10:22:00,69.3,63.6,29.98,SW,224,7.0,13.0,82,0.00,,---,0.01,VWS V14.00,2013-01-17 15:22:00,
2013-01-17 10:27:00,69.6,63.9,29.98,West,262,9.0,13.0,82,0.00,,---,0.01,VWS V14.00,2013-01-17 15:27:00,
2013-01-17 10:32:00,69.7,63.6,29.97,West,263,6.0,12.0,81,0.00,,---,0.01,VWS V14.00,2013-01-17 15:32:00,
2013-01-17 10:37:00,70.0,63.5,29.97,WSW,253,11.0,12.0,80,0.00,,---,0.01,VWS V14.00,2013-01-17 15:37:00,
2013-01-17 10:42:00,69.9,63.8,29.97,WSW,256,6.0,12.0,81,0.00,,---,0.01,VWS V14.00,2013-01-17 15:42:00,
2013-01-17 10:47:00,70.3,63.8,29.97,SW,231,8.0,12.0,80,0.00,,---,0.01,VWS V14.00,2013-01-17 15:47:00,
2013-01-17 10:52:00,70.7,64.2,29.96,WSW,245,3.0,12.0,80,0.00,,---,0.01,VWS V14.00,2013-01-17 15:52:00,
2013-01-17 10:57:00,70.8,64.0,29.96,West,269,7.0,13.0,79,0.00,,---,0.01,VWS V14.00,2013-01-17 15:57:00,
2013-01-17 11:02:00,70.8,64.0,29.96,West,281,9.0,12.0,79,0.00,,---,0.01,VWS V14.00,2013-01-17 16:02:00,
2013-01-17 11:07:00,71.1,63.9,29.95,WSW,252,5.0,12.0,78,0.00,,---,0.01,VWS V14.00,2013-01-17 16:07:00,
2013-01-17 11:12:00,71.5,64.3,29.95,WSW,251,7.0,14.0,78,0.00,,---,0.01,VWS V14.00,2013-01-17 16:12:00,
2013-01-17 11:17:00,71.7,64.1,29.94,WNW,295,6.0,14.0,77,0.00,,---,0.01,VWS V14.00,2013-01-17 16:17:00,
2013-01-17 11:22:00,71.6,64.0,29.94,WNW,287,5.0,14.0,77,0.00,,---,0.01,VWS V14.00,2013-01-17 16:22:00,
2013-01-17 11:27:00,71.7,64.1,29.94,West,262,7.0,14.0,77,0.00,,---,0.01,VWS V14.00,2013-01-17 16:27:00,
2013-01-17 11:32:00,71.8,63.8,29.93,West,262,5.0,8.0,76,0.00,,---,0.01,VWS V14.00,2013-01-17 16:32:00,
2013-01-17 11:37:00,72.0,64.4,29.93,WSW,251,4.0,8.0,77,0.00,,---,0.01,VWS V14.00,2013-01-17 16:37:00,
2013-01-17 11:42:00,72.5,64.1,29.93,West,276,2.0,8.0,75,0.00,,---,0.01,VWS V14.00,2013-01-17 16:42:00,
2013-01-17 11:47:00,72.4,64.0,29.93,WNW,292,5.0,11.0,75,0.00,,---,0.01,VWS V14.00,2013-01-17 16:47:00,
2013-01-17 11:52:00,73.1,64.7,29.92,West,260,6.0,11.0,75,0.00,,---,0.01,VWS V14.00,2013-01-17 16:52:00,
2013-01-17 11:57:00,73.6,64.0,29.92,WNW,292,5.0,11.0,72,0.00,,---,0.01,VWS V14.00,2013-01-17 16:57:00,
2013-01-17 12:02:00,73.6,64.0,29.92,SW,221,5.0,10.0,72,0.00,,---,0.01,VWS V14.00,2013-01-17 17:02:00,
2013-01-17 12:07:00,73.3,64.1,29.91,WNW,285,5.0,10.0,73,0.00,,---,0.01,VWS V14.00,2013-01-17 17:07:00,
2013-01-17 12:12:00,73.4,64.2,29.91,WSW,245,4.0,10.0,73,0.00,,---,0.01,VWS V14.00,2013-01-17 17:12:00,
2013-01-17 12:17:00,73.7,63.7,29.90,West,268,3.0,10.0,71,0.00,,---,0.01,VWS V14.00,2013-01-17 17:17:00,
2013-01-17 12:22:00,73.7,63.7,29.90,WSW,243,5.0,10.0,71,0.00,,---,0.01,VWS V14.00,2013-01-17 17:22:00,
2013-01-17 12:27:00,74.4,63.6,29.90,WNW,284,5.0,10.0,69,0.00,,---,0.01,VWS V14.00,2013-01-17 17:27:00,
2013-01-17 12:32:00,74.6,63.8,29.89,WNW,298,6.0,8.0,69,0.00,,---,0.01,VWS V14.00,2013-01-17 17:32:00,
2013-01-17 12:37:00,74.5,63.3,29.89,SSW,199,10.0,18.0,68,0.00,,---,0.01,VWS V14.00,2013-01-17 17:37:00,
2013-01-17 12:42:00,75.8,63.6,29.89,WSW,239,9.0,18.0,66,0.00,,---,0.01,VWS V14.00,2013-01-17 17:42:00,
2013-01-17 12:47:00,75.9,62.9,29.88,WSW,237,8.0,18.0,64,0.00,,---,0.01,VWS V14.00,2013-01-17 17:47:00,
2013-01-17 12:52:00,75.6,62.1,29.88,ESE,123,11.0,18.0,63,0.00,,---,0.01,VWS V14.00,2013-01-17 17:52:00,
2013-01-17 12:57:00,72.1,61.8,29.88,ESE,118,8.0,18.0,70,0.00,,---,0.01,VWS V14.00,2013-01-17 17:57:00,
2013-01-17 13:02:00,70.6,61.1,29.88,SSE,154,9.0,13.0,72,0.00,,---,0.01,VWS V14.00,2013-01-17 18:02:00,
2013-01-17 13:07:00,70.1,61.4,29.88,SSE,147,9.0,13.0,74,0.00,,---,0.01,VWS V14.00,2013-01-17 18:07:00,
2013-01-17 13:12:00,69.9,61.6,29.88,SE,134,12.0,14.0,75,0.00,,---,0.01,VWS V14.00,2013-01-17 18:12:00,
2013-01-17 13:17:00,70.7,62.4,29.87,SSE,164,7.0,14.0,75,0.00,,---,0.01,VWS V14.00,2013-01-17 18:17:00,
2013-01-17 13:22:00,70.8,62.1,29.87,SE,129,11.0,14.0,74,0.00,,---,0.01,VWS V14.00,2013-01-17 18:22:00,
2013-01-17 13:27:00,71.2,61.7,29.86,SSE,147,12.0,14.0,72,0.00,,---,0.01,VWS V14.00,2013-01-17 18:27:00,
2013-01-17 13:32:00,70.3,61.6,29.87,SSE,150,7.0,13.0,74,0.00,,---,0.01,VWS V14.00,2013-01-17 18:32:00,
2013-01-17 13:37:00,70.6,60.8,29.87,SSE,149,9.0,15.0,71,0.00,,---,0.01,VWS V14.00,2013-01-17 18:37:00,
2013-01-17 13:42:00,70.5,61.4,29.86,SSE,158,7.0,15.0,73,0.00,,---,0.01,VWS V14.00,2013-01-17 18:42:00,
2013-01-17 13:47:00,71.2,61.3,29.86,SE,142,7.0,15.0,71,0.00,,---,0.01,VWS V14.00,2013-01-17 18:47:00,
2013-01-17 13:52:00,71.8,61.5,29.86,South,175,11.0,15.0,70,0.00,,---,0.01,VWS V14.00,2013-01-17 18:52:00,
2013-01-17 13:57:00,72.1,61.0,29.86,SSE,157,7.0,15.0,68,0.00,,---,0.01,VWS V14.00,2013-01-17 18:57:00,
2013-01-17 14:02:00,70.8,60.5,29.86,SE,141,10.0,13.0,70,0.00,,---,0.01,VWS V14.00,2013-01-17 19:02:00,
2013-01-17 14:07:00,70.1,60.7,29.85,SSE,158,9.0,14.0,72,0.00,,---,0.01,VWS V14.00,2013-01-17 19:07:00,
2013-01-17 14:12:00,69.8,60.8,29.85,SSE,148,6.0,14.0,73,0.00,,---,0.01,VWS V14.00,2013-01-17 19:12:00,
2013-01-17 14:17:00,69.5,60.9,29.85,SE,138,9.0,14.0,74,0.00,,---,0.01,VWS V14.00,2013-01-17 19:17:00,
2013-01-17 14:22:00,69.2,60.6,29.85,SE,124,8.0,14.0,74,0.00,,---,0.01,VWS V14.00,2013-01-17 19:22:00,
2013-01-17 14:27:00,69.1,60.1,29.85,SE,133,12.0,14.0,73,0.00,,---,0.01,VWS V14.00,2013-01-17 19:27:00,
2013-01-17 14:32:00,68.8,60.6,29.84,SE,134,8.0,13.0,75,0.00,,---,0.01,VWS V14.00,2013-01-17 19:32:00,
2013-01-17 14:37:00,68.6,60.4,29.84,SE,136,12.0,13.0,75,0.00,,---,0.01,VWS V14.00,2013-01-17 19:37:00,
2013-01-17 14:42:00,69.0,60.8,29.84,SE,127,8.0,13.0,75,0.00,,---,0.01,VWS V14.00,2013-01-17 19:42:00,
2013-01-17 14:47:00,69.4,61.1,29.84,SE,135,10.0,16.0,75,0.00,,---,0.01,VWS V14.00,2013-01-17 19:47:00,
2013-01-17 14:52:00,69.5,61.2,29.84,SE,139,9.0,16.0,75,0.00,,---,0.01,VWS V14.00,2013-01-17 19:52:00,
2013-01-17 14:57:00,69.3,60.7,29.84,SE,145,8.0,16.0,74,0.00,,---,0.01,VWS V14.00,2013-01-17 19:57:00,
2013-01-17 15:02:00,68.9,60.7,29.84,SE,143,9.0,14.0,75,0.00,,---,0.01,VWS V14.00,2013-01-17 20:02:00,
2013-01-17 15:07:00,69.1,61.6,29.84,SE,145,8.0,14.0,77,0.00,,---,0.01,VWS V14.00,2013-01-17 20:07:00,
2013-01-17 15:12:00,69.1,62.0,29.84,South,171,9.0,14.0,78,0.00,,---,0.01,VWS V14.00,2013-01-17 20:12:00,
2013-01-17 15:17:00,69.2,62.4,29.84,SSE,148,13.0,15.0,79,0.00,,---,0.01,VWS V14.00,2013-01-17 20:17:00,
2013-01-17 15:22:00,69.1,62.7,29.84,SE,146,7.0,15.0,80,0.00,,---,0.01,VWS V14.00,2013-01-17 20:22:00,
2013-01-17 15:27:00,68.9,62.5,29.83,SE,141,9.0,15.0,80,0.00,,---,0.01,VWS V14.00,2013-01-17 20:27:00,
2013-01-17 15:32:00,68.5,62.5,29.84,ESE,123,10.0,12.0,81,0.00,,---,0.01,VWS V14.00,2013-01-17 20:32:00,
2013-01-17 15:37:00,67.7,61.7,29.84,SE,128,13.0,15.0,81,0.00,,---,0.01,VWS V14.00,2013-01-17 20:37:00,
2013-01-17 15:42:00,66.7,61.0,29.84,SE,129,9.0,15.0,82,0.00,,---,0.01,VWS V14.00,2013-01-17 20:42:00,
2013-01-17 15:47:00,66.2,60.5,29.84,ESE,102,8.0,15.0,82,0.00,,---,0.01,VWS V14.00,2013-01-17 20:47:00,
2013-01-17 15:52:00,64.7,59.1,29.84,East,93,12.0,17.0,82,0.00,,---,0.01,VWS V14.00,2013-01-17 20:52:00,
2013-01-17 15:57:00,62.9,58.0,29.84,ENE,69,16.0,18.0,84,0.00,,---,0.01,VWS V14.00,2013-01-17 20:57:00,
2013-01-17 16:02:00,61.0,56.8,29.84,East,89,14.0,20.0,86,0.00,,---,0.01,VWS V14.00,2013-01-17 21:02:00,
2013-01-17 16:07:00,59.8,56.2,29.83,East,88,12.0,21.0,88,0.00,,---,0.01,VWS V14.00,2013-01-17 21:07:00,
2013-01-17 16:12:00,58.7,55.8,29.84,East,91,16.0,21.0,90,0.00,,---,0.01,VWS V14.00,2013-01-17 21:12:00,
2013-01-17 16:17:00,58.2,55.6,29.83,ENE,73,7.0,21.0,91,0.00,,---,0.01,VWS V14.00,2013-01-17 21:17:00,
2013-01-17 16:22:00,58.0,55.7,29.83,East,79,12.0,21.0,92,0.00,,---,0.01,VWS V14.00,2013-01-17 21:22:00,
2013-01-17 16:27:00,57.8,55.5,29.83,East,94,12.0,21.0,92,0.00,,---,0.01,VWS V14.00,2013-01-17 21:27:00,
2013-01-17 16:32:00,57.6,55.3,29.83,ENE,73,11.0,22.0,92,0.00,,---,0.01,VWS V14.00,2013-01-17 21:32:00,
2013-01-17 16:37:00,57.4,55.1,29.82,East,100,12.0,22.0,92,0.00,,---,0.01,VWS V14.00,2013-01-17 21:37:00,
2013-01-17 16:42:00,57.3,55.0,29.82,East,93,16.0,24.0,92,0.00,,---,0.01,VWS V14.00,2013-01-17 21:42:00,
2013-01-17 16:47:00,57.0,54.7,29.82,East,82,10.0,24.0,92,0.00,,---,0.01,VWS V14.00,2013-01-17 21:47:00,
2013-01-17 16:52:00,56.7,54.4,29.81,ENE,78,11.0,24.0,92,0.00,,---,0.01,VWS V14.00,2013-01-17 21:52:00,
2013-01-17 16:57:00,56.4,54.4,29.81,ENE,75,18.0,24.0,93,0.00,,---,0.01,VWS V14.00,2013-01-17 21:57:00,
2013-01-17 17:02:00,56.2,54.2,29.80,ENE,77,18.0,22.0,93,0.00,,---,0.01,VWS V14.00,2013-01-17 22:02:00,
2013-01-17 17:07:00,55.9,53.9,29.81,ENE,78,12.0,24.0,93,0.00,,---,0.01,VWS V14.00,2013-01-17 22:07:00,
2013-01-17 17:12:00,55.8,53.8,29.80,East,89,14.0,24.0,93,0.00,,---,0.01,VWS V14.00,2013-01-17 22:12:00,
2013-01-17 17:17:00,55.7,53.7,29.81,ENE,77,17.0,24.0,93,0.00,,---,0.01,VWS V14.00,2013-01-17 22:17:00,
2013-01-17 17:22:00,55.7,53.7,29.80,ENE,78,10.0,24.0,93,0.00,,---,0.01,VWS V14.00,2013-01-17 22:22:00,
2013-01-17 17:27:00,55.7,53.7,29.80,ENE,74,10.0,24.0,93,0.00,,---,0.02,VWS V14.00,2013-01-17 22:27:00,
2013-01-17 17:32:00,55.5,53.5,29.80,East,95,12.0,21.0,93,0.00,,---,0.02,VWS V14.00,2013-01-17 22:32:00,
2013-01-17 17:37:00,55.1,53.1,29.80,NE,54,14.0,26.0,93,0.10,,---,0.03,VWS V14.00,2013-01-17 22:37:00,
2013-01-17 17:42:00,54.7,53.0,29.81,ENE,66,11.0,26.0,94,0.06,,---,0.03,VWS V14.00,2013-01-17 22:42:00,
2013-01-17 17:47:00,54.5,52.8,29.82,East,83,7.0,26.0,94,0.44,,---,0.05,VWS V14.00,2013-01-17 22:47:00,
2013-01-17 17:52:00,54.4,52.7,29.82,NNE,23,7.0,26.0,94,0.11,,---,0.06,VWS V14.00,2013-01-17 22:52:00,
2013-01-17 17:57:00,54.4,52.7,29.83,WNW,294,3.0,26.0,94,0.66,,---,0.08,VWS V14.00,2013-01-17 22:57:00,
2013-01-17 18:02:00,54.4,53.0,29.85,NNE,23,6.0,6.0,95,0.37,,---,0.13,VWS V14.00,2013-01-17 23:02:00,
2013-01-17 18:07:00,54.4,53.0,29.85,ENE,57,5.0,11.0,95,0.50,,---,0.18,VWS V14.00,2013-01-17 23:07:00,
2013-01-17 18:12:00,54.4,53.0,29.85,NE,45,4.0,11.0,95,0.23,,---,0.21,VWS V14.00,2013-01-17 23:12:00,
2013-01-17 18:17:00,54.5,53.1,29.86,East,82,7.0,11.0,95,0.85,,---,0.25,VWS V14.00,2013-01-17 23:17:00,
2013-01-17 18:22:00,54.2,52.5,29.84,NE,48,10.0,16.0,94,0.50,,---,0.27,VWS V14.00,2013-01-17 23:22:00,
2013-01-17 18:27:00,54.1,52.4,29.85,ESE,107,6.0,16.0,94,0.17,,---,0.28,VWS V14.00,2013-01-17 23:27:00,
2013-01-17 18:32:00,54.0,52.6,29.83,East,81,9.0,15.0,95,0.07,,---,0.28,VWS V14.00,2013-01-17 23:32:00,
2013-01-17 18:37:00,54.0,52.6,29.83,East,87,7.0,15.0,95,0.04,,---,0.28,VWS V14.00,2013-01-17 23:37:00,
2013-01-17 18:42:00,54.0,52.6,29.83,ENE,58,9.0,15.0,95,0.00,,---,0.28,VWS V14.00,2013-01-17 23:42:00,
2013-01-17 18:47:00,53.9,52.5,29.83,NE,36,7.0,15.0,95,0.00,,---,0.28,VWS V14.00,2013-01-17 23:47:00,
2013-01-17 18:52:00,53.8,52.4,29.83,NE,44,9.0,15.0,95,0.00,,---,0.28,VWS V14.00,2013-01-17 23:52:00,
2013-01-17 18:57:00,53.7,52.3,29.83,ENE,75,7.0,15.0,95,0.00,,---,0.28,VWS V14.00,2013-01-17 23:57:00,
2013-01-17 19:02:00,53.3,51.6,29.82,ENE,57,19.0,20.0,94,0.00,,---,0.28,VWS V14.00,2013-01-18 00:02:00,
2013-01-17 19:07:00,52.7,51.0,29.82,NE,40,13.0,20.0,94,0.00,,---,0.28,VWS V14.00,2013-01-18 00:07:00,
2013-01-17 19:12:00,52.2,50.5,29.82,NE,41,9.0,20.0,94,0.00,,---,0.28,VWS V14.00,2013-01-18 00:12:00,
2013-01-17 19:17:00,51.7,50.0,29.81,ENE,62,9.0,20.0,94,0.00,,---,0.28,VWS V14.00,2013-01-18 00:17:00,
2013-01-17 19:22:00,51.3,49.3,29.80,NNE,25,11.0,20.0,93,0.00,,---,0.28,VWS V14.00,2013-01-18 00:22:00,
2013-01-17 19:27:00,51.0,49.0,29.79,North,6,5.0,21.0,93,0.00,,---,0.29,VWS V14.00,2013-01-18 00:27:00,
2013-01-17 19:32:00,50.7,49.0,29.79,NNE,25,13.0,17.0,94,0.00,,---,0.29,VWS V14.00,2013-01-18 00:32:00,
2013-01-17 19:37:00,50.3,48.6,29.79,NNE,29,17.0,20.0,94,0.00,,---,0.29,VWS V14.00,2013-01-18 00:37:00,
2013-01-17 19:42:00,50.0,48.3,29.78,NNE,19,6.0,20.0,94,0.00,,---,0.29,VWS V14.00,2013-01-18 00:42:00,
2013-01-17 19:47:00,49.5,47.6,29.77,NNE,14,9.0,20.0,93,0.00,,---,0.30,VWS V14.00,2013-01-18 00:47:00,
2013-01-17 19:52:00,49.0,47.1,29.76,NE,39,16.0,22.0,93,0.11,,---,0.31,VWS V14.00,2013-01-18 00:52:00,
2013-01-17 19:57:00,48.7,46.8,29.76,NNE,16,9.0,22.0,93,0.08,,---,0.31,VWS V14.00,2013-01-18 00:57:00,
2013-01-17 20:02:00,48.4,46.8,29.76,NNE,29,12.0,22.0,94,0.06,,---,0.32,VWS V14.00,2013-01-18 01:02:00,
2013-01-17 20:07:00,48.2,46.6,29.77,NNE,25,7.0,22.0,94,1.02,,---,0.38,VWS V14.00,2013-01-18 01:07:00,
2013-01-17 20:12:00,47.9,46.3,29.79,NNE,23,10.0,22.0,94,0.21,,---,0.40,VWS V14.00,2013-01-18 01:12:00,
2013-01-17 20:17:00,47.6,46.0,29.81,WNW,300,5.0,22.0,94,0.31,,---,0.42,VWS V14.00,2013-01-18 01:17:00,
2013-01-17 20:22:00,47.8,46.4,29.85,WNW,298,10.0,26.0,95,1.05,,---,0.46,VWS V14.00,2013-01-18 01:22:00,
2013-01-17 20:27:00,47.6,46.0,29.89,WNW,302,8.0,26.0,94,0.62,,---,0.50,VWS V14.00,2013-01-18 01:27:00,
2013-01-17 20:32:00,47.3,45.9,29.89,NW,307,10.0,17.0,95,0.20,,---,0.51,VWS V14.00,2013-01-18 01:32:00,
2013-01-17 20:37:00,47.1,45.5,29.86,North,358,9.0,17.0,94,0.22,,---,0.53,VWS V14.00,2013-01-18 01:37:00,
2013-01-17 20:42:00,47.0,45.7,29.87,North,5,6.0,17.0,95,0.13,,---,0.54,VWS V14.00,2013-01-18 01:42:00,
2013-01-17 20:47:00,46.9,45.5,29.88,NNE,17,9.0,17.0,95,0.17,,---,0.55,VWS V14.00,2013-01-18 01:47:00,
2013-01-17 20:52:00,46.8,45.5,29.85,North,10,14.0,17.0,95,0.08,,---,0.56,VWS V14.00,2013-01-18 01:52:00,
2013-01-17 20:57:00,46.2,44.6,29.85,North,354,10.0,17.0,94,0.23,,---,0.58,VWS V14.00,2013-01-18 01:57:00,
2013-01-17 21:02:00,46.0,44.4,29.86,NNE,12,7.0,10.0,94,0.19,,---,0.59,VWS V14.00,2013-01-18 02:02:00,
2013-01-17 21:07:00,45.9,44.5,29.87,NNE,27,5.0,10.0,95,0.31,,---,0.61,VWS V14.00,2013-01-18 02:07:00,
2013-01-17 21:12:00,45.7,44.3,29.87,NNW,347,9.0,10.0,95,0.20,,---,0.62,VWS V14.00,2013-01-18 02:12:00,
2013-01-17 21:17:00,45.4,43.8,29.89,NNW,342,9.0,13.0,94,0.16,,---,0.64,VWS V14.00,2013-01-18 02:17:00,
2013-01-17 21:22:00,45.1,43.8,29.87,NNE,25,14.0,19.0,95,0.12,,---,0.65,VWS V14.00,2013-01-18 02:22:00,
2013-01-17 21:27:00,44.9,43.3,29.87,North,10,5.0,19.0,94,0.12,,---,0.65,VWS V14.00,2013-01-18 02:27:00,
2013-01-17 21:32:00,44.9,43.6,29.87,North,1,10.0,12.0,95,0.06,,---,0.65,VWS V14.00,2013-01-18 02:32:00,
2013-01-17 21:37:00,44.8,43.5,29.87,NNW,346,4.0,12.0,95,0.04,,---,0.65,VWS V14.00,2013-01-18 02:37:00,
2013-01-17 21:42:00,44.6,43.3,29.87,NNW,341,13.0,15.0,95,0.00,,---,0.65,VWS V14.00,2013-01-18 02:42:00,
2013-01-17 21:47:00,44.5,43.2,29.88,NNW,335,5.0,16.0,95,0.00,,---,0.66,VWS V14.00,2013-01-18 02:47:00,
2013-01-17 21:52:00,44.4,43.1,29.89,NNW,343,8.0,16.0,95,0.00,,---,0.66,VWS V14.00,2013-01-18 02:52:00,
2013-01-17 21:57:00,44.3,43.0,29.90,NW,325,11.0,16.0,95,0.00,,---,0.66,VWS V14.00,2013-01-18 02:57:00,
2013-01-17 22:02:00,44.1,42.5,29.91,North,351,11.0,17.0,94,0.00,,---,0.66,VWS V14.00,2013-01-18 03:02:00,
2013-01-17 22:07:00,44.0,42.4,29.91,North,351,9.0,17.0,94,0.00,,---,0.66,VWS V14.00,2013-01-18 03:07:00,
2013-01-17 22:12:00,43.8,42.2,29.91,NW,325,12.0,19.0,94,0.00,,---,0.66,VWS V14.00,2013-01-18 03:12:00,
2013-01-17 22:17:00,43.6,42.0,29.92,NW,325,11.0,20.0,94,0.00,,---,0.66,VWS V14.00,2013-01-18 03:17:00,
2013-01-17 22:22:00,43.6,42.0,29.92,North,354,9.0,20.0,94,0.00,,---,0.66,VWS V14.00,2013-01-18 03:22:00,
2013-01-17 22:27:00,43.4,41.8,29.93,North,356,14.0,20.0,94,0.00,,---,0.66,VWS V14.00,2013-01-18 03:27:00,
2013-01-17 22:32:00,43.3,41.7,29.93,NNW,341,11.0,16.0,94,0.00,,---,0.66,VWS V14.00,2013-01-18 03:32:00,
2013-01-17 22:38:00,43.1,41.5,29.93,NNW,348,9.0,21.0,94,0.00,,---,0.66,VWS V14.00,2013-01-18 03:38:00,
2013-01-17 22:43:00,42.9,41.0,29.93,North,354,15.0,22.0,93,0.00,,---,0.66,VWS V14.00,2013-01-18 03:43:00,
2013-01-17 22:48:00,42.8,40.9,29.93,North,350,14.0,22.0,93,0.00,,---,0.66,VWS V14.00,2013-01-18 03:48:00,
2013-01-17 22:53:00,42.7,40.8,29.94,NNW,346,12.0,22.0,93,0.00,,---,0.66,VWS V14.00,2013-01-18 03:53:00,
2013-01-17 22:58:00,42.7,41.1,29.94,North,5,19.0,22.0,94,0.00,,---,0.66,VWS V14.00,2013-01-18 03:58:00,
2013-01-17 23:03:00,42.7,40.8,29.93,North,357,18.0,23.0,93,0.00,,---,0.66,VWS V14.00,2013-01-18 04:03:00,
2013-01-17 23:08:00,42.6,40.7,29.93,North,10,14.0,23.0,93,0.00,,---,0.66,VWS V14.00,2013-01-18 04:08:00,
2013-01-17 23:13:00,42.5,40.6,29.93,North,358,13.0,23.0,93,0.00,,---,0.66,VWS V14.00,2013-01-18 04:13:00,
2013-01-17 23:18:00,42.4,40.5,29.94,NNE,20,11.0,23.0,93,0.00,,---,0.66,VWS V14.00,2013-01-18 04:18:00,
2013-01-17 23:23:00,42.3,40.2,29.95,North,1,9.0,23.0,92,0.00,,---,0.66,VWS V14.00,2013-01-18 04:23:00,
2013-01-17 23:28:00,42.1,40.0,29.94,North,4,17.0,23.0,92,0.00,,---,0.66,VWS V14.00,2013-01-18 04:28:00,
2013-01-17 23:33:00,42.0,39.6,29.95,North,9,8.0,19.0,91,0.00,,---,0.66,VWS V14.00,2013-01-18 04:33:00,
2013-01-17 23:38:00,41.9,39.5,29.94,North,6,12.0,24.0,91,0.00,,---,0.66,VWS V14.00,2013-01-18 04:38:00,
2013-01-17 23:43:00,41.8,39.4,29.95,North,10,15.0,24.0,91,0.00,,---,0.66,VWS V14.00,2013-01-18 04:43:00,
2013-01-17 23:48:00,41.7,39.3,29.95,North,353,8.0,24.0,91,0.00,,---,0.66,VWS V14.00,2013-01-18 04:48:00,
2013-01-17 23:53:00,41.6,39.2,29.96,North,359,5.0,24.0,91,0.00,,---,0.66,VWS V14.00,2013-01-18 04:53:00,
2013-01-17 23:58:00,41.6,39.2,29.97,NNW,335,9.0,24.0,91,0.00,,---,0.66,VWS V14.00,2013-01-18 04:58:00,